sensor_id;sensor_type;location;lat;lon;timestamp;pressure;altitude;pressure_sealevel;temperature;humidity
5500;BME280;2772;42.700;23.304;2023-04-05T00:01:58;94644.38;;;2.97;100.00
5500;BME280;2772;42.700;23.304;2023-04-05T00:04:26;94642.53;;;2.97;100.00
5500;BME280;2772;42.700;23.304;2023-04-05T00:06:54;94631.78;;;2.89;100.00
5500;BME280;2772;42.700;23.304;2023-04-05T00:09:21;94634.41;;;2.94;100.00
5500;BME280;2772;42.700;23.304;2023-04-05T00:11:48;94630.91;;;3.13;100.00
5500;BME280;2772;42.700;23.304;2023-04-05T00:14:16;94628.31;;;3.03;100.00
5500;BME280;2772;42.700;23.304;2023-04-05T00:16:43;94634.28;;;3.14;100.00
5500;BME280;2772;42.700;23.304;2023-04-05T00:19:10;94631.50;;;2.95;100.00
5500;BME280;2772;42.700;23.304;2023-04-05T00:21:38;94633.66;;;2.83;100.00
5500;BME280;2772;42.700;23.304;2023-04-05T00:24:05;94634.75;;;2.77;100.00
5500;BME280;2772;42.700;23.304;2023-04-05T00:26:32;94628.78;;;2.57;100.00
5500;BME280;2772;42.700;23.304;2023-04-05T00:29:00;94640.88;;;2.48;100.00
5500;BME280;2772;42.700;23.304;2023-04-05T00:31:29;94643.53;;;2.33;100.00
5500;BME280;2772;42.700;23.304;2023-04-05T00:33:55;94641.44;;;2.45;100.00
5500;BME280;2772;42.700;23.304;2023-04-05T00:36:22;94644.56;;;2.47;100.00
5500;BME280;2772;42.700;23.304;2023-04-05T00:38:49;94631.38;;;2.62;100.00
5500;BME280;2772;42.700;23.304;2023-04-05T00:41:16;94627.88;;;2.86;100.00
5500;BME280;2772;42.700;23.304;2023-04-05T00:43:42;94638.63;;;2.90;100.00
5500;BME280;2772;42.700;23.304;2023-04-05T00:46:09;94640.03;;;2.62;100.00
5500;BME280;2772;42.700;23.304;2023-04-05T00:48:37;94629.31;;;2.54;100.00
5500;BME280;2772;42.700;23.304;2023-04-05T00:51:05;94646.91;;;2.53;100.00
5500;BME280;2772;42.700;23.304;2023-04-05T00:53:33;94658.75;;;2.41;100.00
5500;BME280;2772;42.700;23.304;2023-04-05T00:56:00;94646.69;;;2.45;100.00
5500;BME280;2772;42.700;23.304;2023-04-05T00:58:28;94636.09;;;2.65;100.00
5500;BME280;2772;42.700;23.304;2023-04-05T01:01:00;94657.94;;;2.60;100.00
5500;BME280;2772;42.700;23.304;2023-04-05T01:03:31;94644.25;;;2.58;100.00
5500;BME280;2772;42.700;23.304;2023-04-05T01:06:07;94649.53;;;2.53;100.00
5500;BME280;2772;42.700;23.304;2023-04-05T01:08:41;94650.84;;;2.56;100.00
5500;BME280;2772;42.700;23.304;2023-04-05T01:11:12;94657.16;;;2.55;100.00
5500;BME280;2772;42.700;23.304;2023-04-05T01:13:39;94657.41;;;2.58;100.00
5500;BME280;2772;42.700;23.304;2023-04-05T01:16:06;94657.38;;;2.68;100.00
5500;BME280;2772;42.700;23.304;2023-04-05T01:18:32;94664.22;;;2.64;100.00
5500;BME280;2772;42.700;23.304;2023-04-05T01:21:17;94646.56;;;2.75;100.00
5500;BME280;2772;42.700;23.304;2023-04-05T01:23:59;94654.22;;;2.71;100.00
5500;BME280;2772;42.700;23.304;2023-04-05T01:26:45;94664.00;;;2.56;100.00
5500;BME280;2772;42.700;23.304;2023-04-05T01:29:41;94669.53;;;2.49;100.00
5500;BME280;2772;42.700;23.304;2023-04-05T01:32:17;94662.94;;;2.47;100.00
5500;BME280;2772;42.700;23.304;2023-04-05T01:34:49;94660.56;;;2.55;100.00
5500;BME280;2772;42.700;23.304;2023-04-05T01:37:19;94662.59;;;2.78;100.00
5500;BME280;2772;42.700;23.304;2023-04-05T01:39:47;94667.31;;;2.81;100.00
5500;BME280;2772;42.700;23.304;2023-04-05T01:42:16;94672.88;;;2.70;100.00
5500;BME280;2772;42.700;23.304;2023-04-05T01:44:50;94673.44;;;2.62;100.00
5500;BME280;2772;42.700;23.304;2023-04-05T01:47:16;94662.38;;;2.70;100.00
5500;BME280;2772;42.700;23.304;2023-04-05T01:49:43;94667.13;;;2.63;100.00
5500;BME280;2772;42.700;23.304;2023-04-05T01:52:10;94665.00;;;2.65;100.00
5500;BME280;2772;42.700;23.304;2023-04-05T01:54:36;94656.84;;;2.71;100.00
5500;BME280;2772;42.700;23.304;2023-04-05T01:57:03;94662.34;;;2.75;100.00
5500;BME280;2772;42.700;23.304;2023-04-05T01:59:30;94655.53;;;2.69;100.00
5500;BME280;2772;42.700;23.304;2023-04-05T02:01:59;94672.84;;;2.75;100.00
5500;BME280;2772;42.700;23.304;2023-04-05T02:04:25;94668.72;;;2.64;100.00
5500;BME280;2772;42.700;23.304;2023-04-05T02:06:52;94663.47;;;2.54;100.00
5500;BME280;2772;42.700;23.304;2023-04-05T02:09:19;94670.00;;;2.56;100.00
5500;BME280;2772;42.700;23.304;2023-04-05T02:11:45;94668.47;;;2.45;100.00
5500;BME280;2772;42.700;23.304;2023-04-05T02:14:12;94670.38;;;2.25;100.00
5500;BME280;2772;42.700;23.304;2023-04-05T02:16:39;94671.66;;;2.27;100.00
5500;BME280;2772;42.700;23.304;2023-04-05T02:19:07;94673.22;;;2.33;100.00
5500;BME280;2772;42.700;23.304;2023-04-05T02:21:33;94673.75;;;2.35;100.00
5500;BME280;2772;42.700;23.304;2023-04-05T02:24:01;94674.50;;;2.46;100.00
5500;BME280;2772;42.700;23.304;2023-04-05T02:26:27;94667.22;;;2.28;100.00
5500;BME280;2772;42.700;23.304;2023-04-05T02:28:54;94674.03;;;2.24;100.00
5500;BME280;2772;42.700;23.304;2023-04-05T02:31:21;94674.28;;;2.32;100.00
5500;BME280;2772;42.700;23.304;2023-04-05T02:33:48;94673.00;;;2.20;100.00
5500;BME280;2772;42.700;23.304;2023-04-05T02:36:16;94681.13;;;2.18;100.00
5500;BME280;2772;42.700;23.304;2023-04-05T02:38:43;94671.44;;;2.14;100.00
5500;BME280;2772;42.700;23.304;2023-04-05T02:41:10;94667.75;;;2.10;100.00
5500;BME280;2772;42.700;23.304;2023-04-05T02:43:37;94669.59;;;1.99;100.00
5500;BME280;2772;42.700;23.304;2023-04-05T02:46:03;94676.16;;;2.07;100.00
5500;BME280;2772;42.700;23.304;2023-04-05T02:48:30;94662.25;;;2.01;100.00
5500;BME280;2772;42.700;23.304;2023-04-05T02:50:57;94670.91;;;2.07;100.00
5500;BME280;2772;42.700;23.304;2023-04-05T02:53:25;94667.47;;;2.11;100.00
5500;BME280;2772;42.700;23.304;2023-04-05T02:55:52;94660.66;;;2.15;100.00
5500;BME280;2772;42.700;23.304;2023-04-05T02:58:20;94658.00;;;2.20;100.00
5500;BME280;2772;42.700;23.304;2023-04-05T03:00:48;94674.56;;;2.01;100.00
5500;BME280;2772;42.700;23.304;2023-04-05T03:03:16;94669.84;;;2.08;100.00
5500;BME280;2772;42.700;23.304;2023-04-05T03:05:44;94661.47;;;2.11;100.00
5500;BME280;2772;42.700;23.304;2023-04-05T03:08:11;94646.47;;;2.06;100.00
5500;BME280;2772;42.700;23.304;2023-04-05T03:10:44;94647.25;;;2.07;100.00
5500;BME280;2772;42.700;23.304;2023-04-05T03:13:11;94659.09;;;1.99;100.00
5500;BME280;2772;42.700;23.304;2023-04-05T03:15:38;94662.75;;;2.03;100.00
5500;BME280;2772;42.700;23.304;2023-04-05T03:18:05;94658.81;;;2.06;100.00
5500;BME280;2772;42.700;23.304;2023-04-05T03:20:32;94650.41;;;2.09;100.00
5500;BME280;2772;42.700;23.304;2023-04-05T03:23:00;94656.97;;;2.11;100.00
5500;BME280;2772;42.700;23.304;2023-04-05T03:25:27;94655.38;;;2.20;100.00
5500;BME280;2772;42.700;23.304;2023-04-05T03:27:55;94657.72;;;2.22;100.00
5500;BME280;2772;42.700;23.304;2023-04-05T03:30:23;94660.41;;;2.07;100.00
5500;BME280;2772;42.700;23.304;2023-04-05T03:32:50;94664.84;;;2.11;100.00
5500;BME280;2772;42.700;23.304;2023-04-05T03:35:17;94654.63;;;2.15;100.00
5500;BME280;2772;42.700;23.304;2023-04-05T03:37:44;94665.66;;;2.12;100.00
5500;BME280;2772;42.700;23.304;2023-04-05T03:40:11;94654.88;;;2.13;100.00
5500;BME280;2772;42.700;23.304;2023-04-05T03:42:38;94663.25;;;2.20;100.00
5500;BME280;2772;42.700;23.304;2023-04-05T03:45:07;94671.94;;;2.26;100.00
5500;BME280;2772;42.700;23.304;2023-04-05T03:47:34;94667.75;;;2.25;100.00
5500;BME280;2772;42.700;23.304;2023-04-05T03:50:02;94670.09;;;2.26;100.00
5500;BME280;2772;42.700;23.304;2023-04-05T03:52:29;94674.28;;;2.32;100.00
5500;BME280;2772;42.700;23.304;2023-04-05T03:54:55;94675.34;;;2.21;100.00
5500;BME280;2772;42.700;23.304;2023-04-05T03:57:22;94676.13;;;2.27;100.00
5500;BME280;2772;42.700;23.304;2023-04-05T03:59:49;94679.81;;;2.26;100.00
5500;BME280;2772;42.700;23.304;2023-04-05T04:02:17;94678.47;;;2.28;100.00
5500;BME280;2772;42.700;23.304;2023-04-05T04:04:44;94687.69;;;2.31;100.00
5500;BME280;2772;42.700;23.304;2023-04-05T04:07:11;94688.75;;;2.25;100.00
5500;BME280;2772;42.700;23.304;2023-04-05T04:09:38;94693.47;;;2.18;100.00
5500;BME280;2772;42.700;23.304;2023-04-05T04:12:06;94682.69;;;2.14;100.00
5500;BME280;2772;42.700;23.304;2023-04-05T04:14:33;94681.63;;;2.20;100.00
5500;BME280;2772;42.700;23.304;2023-04-05T04:17:00;94684.25;;;2.25;100.00
5500;BME280;2772;42.700;23.304;2023-04-05T04:19:29;94682.66;;;2.34;100.00
5500;BME280;2772;42.700;23.304;2023-04-05T04:21:55;94686.63;;;2.42;100.00
5500;BME280;2772;42.700;23.304;2023-04-05T04:24:23;94687.38;;;2.42;100.00
5500;BME280;2772;42.700;23.304;2023-04-05T04:26:51;94685.03;;;2.36;100.00
5500;BME280;2772;42.700;23.304;2023-04-05T04:29:19;94684.78;;;2.32;100.00
5500;BME280;2772;42.700;23.304;2023-04-05T04:31:50;94691.09;;;2.41;100.00
5500;BME280;2772;42.700;23.304;2023-04-05T04:34:17;94691.34;;;2.45;100.00
5500;BME280;2772;42.700;23.304;2023-04-05T04:36:46;94682.41;;;2.51;100.00
5500;BME280;2772;42.700;23.304;2023-04-05T04:39:26;94688.19;;;2.53;100.00
5500;BME280;2772;42.700;23.304;2023-04-05T04:41:56;94695.03;;;2.34;100.00
5500;BME280;2772;42.700;23.304;2023-04-05T04:44:23;94688.72;;;2.30;100.00
5500;BME280;2772;42.700;23.304;2023-04-05T04:46:57;94696.06;;;2.33;100.00
5500;BME280;2772;42.700;23.304;2023-04-05T04:49:23;94697.94;;;2.37;100.00
5500;BME280;2772;42.700;23.304;2023-04-05T04:51:54;94688.19;;;2.33;100.00
5500;BME280;2772;42.700;23.304;2023-04-05T04:54:22;94690.31;;;2.16;100.00
5500;BME280;2772;42.700;23.304;2023-04-05T04:56:49;94698.72;;;2.23;100.00
5500;BME280;2772;42.700;23.304;2023-04-05T04:59:16;94687.94;;;2.24;100.00
5500;BME280;2772;42.700;23.304;2023-04-05T05:01:44;94690.59;;;2.29;100.00
5500;BME280;2772;42.700;23.304;2023-04-05T05:04:10;94692.41;;;2.34;100.00
5500;BME280;2772;42.700;23.304;2023-04-05T05:06:37;94692.91;;;2.41;100.00
5500;BME280;2772;42.700;23.304;2023-04-05T05:09:05;94694.25;;;2.38;100.00
5500;BME280;2772;42.700;23.304;2023-04-05T05:11:32;94700.25;;;2.44;100.00
5500;BME280;2772;42.700;23.304;2023-04-05T05:13:59;94694.22;;;2.48;100.00
5500;BME280;2772;42.700;23.304;2023-04-05T05:16:25;94697.66;;;2.34;100.00
5500;BME280;2772;42.700;23.304;2023-04-05T05:18:53;94702.66;;;2.35;100.00
5500;BME280;2772;42.700;23.304;2023-04-05T05:21:19;94698.72;;;2.28;100.00
5500;BME280;2772;42.700;23.304;2023-04-05T05:23:46;94699.25;;;2.25;100.00
5500;BME280;2772;42.700;23.304;2023-04-05T05:26:15;94712.91;;;2.27;100.00
5500;BME280;2772;42.700;23.304;2023-04-05T05:28:41;94720.78;;;2.32;100.00
5500;BME280;2772;42.700;23.304;2023-04-05T05:31:08;94717.09;;;2.43;100.00
5500;BME280;2772;42.700;23.304;2023-04-05T05:33:35;94716.81;;;2.49;100.00
5500;BME280;2772;42.700;23.304;2023-04-05T05:36:01;94715.75;;;2.45;100.00
5500;BME280;2772;42.700;23.304;2023-04-05T05:38:28;94713.38;;;2.59;100.00
5500;BME280;2772;42.700;23.304;2023-04-05T05:40:55;94716.50;;;2.66;100.00
5500;BME280;2772;42.700;23.304;2023-04-05T05:43:24;94727.81;;;2.56;100.00
5500;BME280;2772;42.700;23.304;2023-04-05T05:45:50;94712.84;;;2.67;100.00
5500;BME280;2772;42.700;23.304;2023-04-05T05:48:17;94718.84;;;2.77;100.00
5500;BME280;2772;42.700;23.304;2023-04-05T05:50:44;94713.31;;;2.84;100.00
5500;BME280;2772;42.700;23.304;2023-04-05T05:53:13;94710.69;;;2.84;100.00
5500;BME280;2772;42.700;23.304;2023-04-05T05:55:40;94707.28;;;2.83;100.00
5500;BME280;2772;42.700;23.304;2023-04-05T05:58:07;94720.16;;;2.90;100.00
5500;BME280;2772;42.700;23.304;2023-04-05T06:00:35;94709.03;;;3.03;100.00
5500;BME280;2772;42.700;23.304;2023-04-05T06:03:03;94703.84;;;2.88;100.00
5500;BME280;2772;42.700;23.304;2023-04-05T06:05:30;94717.47;;;3.00;100.00
5500;BME280;2772;42.700;23.304;2023-04-05T06:07:56;94731.13;;;3.07;100.00
5500;BME280;2772;42.700;23.304;2023-04-05T06:10:23;94731.16;;;2.97;100.00
5500;BME280;2772;42.700;23.304;2023-04-05T06:12:50;94719.66;;;3.42;100.00
5500;BME280;2772;42.700;23.304;2023-04-05T06:15:17;94724.44;;;3.83;100.00
5500;BME280;2772;42.700;23.304;2023-04-05T06:17:45;94727.06;;;3.35;100.00
5500;BME280;2772;42.700;23.304;2023-04-05T06:20:12;94738.66;;;3.34;100.00
5500;BME280;2772;42.700;23.304;2023-04-05T06:22:39;94746.56;;;3.23;100.00
5500;BME280;2772;42.700;23.304;2023-04-05T06:25:08;94745.56;;;3.14;100.00
5500;BME280;2772;42.700;23.304;2023-04-05T06:27:37;94741.13;;;3.05;100.00
5500;BME280;2772;42.700;23.304;2023-04-05T06:30:04;94750.53;;;3.21;100.00
5500;BME280;2772;42.700;23.304;2023-04-05T06:32:31;94742.63;;;3.26;100.00
5500;BME280;2772;42.700;23.304;2023-04-05T06:35:00;94746.28;;;3.35;100.00
5500;BME280;2772;42.700;23.304;2023-04-05T06:37:29;94755.25;;;3.29;100.00
5500;BME280;2772;42.700;23.304;2023-04-05T06:39:57;94756.81;;;3.30;100.00
5500;BME280;2772;42.700;23.304;2023-04-05T06:42:24;94757.81;;;3.44;100.00
5500;BME280;2772;42.700;23.304;2023-04-05T06:44:51;94762.31;;;3.39;100.00
5500;BME280;2772;42.700;23.304;2023-04-05T06:47:18;94757.78;;;3.49;100.00
5500;BME280;2772;42.700;23.304;2023-04-05T06:49:44;94758.19;;;3.76;100.00
5500;BME280;2772;42.700;23.304;2023-04-05T06:52:12;94769.19;;;3.83;100.00
5500;BME280;2772;42.700;23.304;2023-04-05T06:54:39;94776.03;;;3.84;100.00
5500;BME280;2772;42.700;23.304;2023-04-05T06:57:06;94771.78;;;3.93;100.00
5500;BME280;2772;42.700;23.304;2023-04-05T06:59:32;94783.47;;;4.16;100.00
5500;BME280;2772;42.700;23.304;2023-04-05T07:01:59;94786.06;;;4.21;100.00
5500;BME280;2772;42.700;23.304;2023-04-05T07:04:26;94793.16;;;4.25;100.00
5500;BME280;2772;42.700;23.304;2023-04-05T07:06:59;94792.88;;;4.27;100.00
5500;BME280;2772;42.700;23.304;2023-04-05T07:09:27;94802.03;;;4.34;100.00
5500;BME280;2772;42.700;23.304;2023-04-05T07:11:55;94807.97;;;4.16;100.00
5500;BME280;2772;42.700;23.304;2023-04-05T07:14:22;94806.88;;;4.22;100.00
5500;BME280;2772;42.700;23.304;2023-04-05T07:16:49;94804.50;;;4.26;100.00
5500;BME280;2772;42.700;23.304;2023-04-05T07:19:16;94801.13;;;4.15;100.00
5500;BME280;2772;42.700;23.304;2023-04-05T07:21:43;94801.66;;;4.12;100.00
5500;BME280;2772;42.700;23.304;2023-04-05T07:24:10;94809.28;;;4.14;100.00
5500;BME280;2772;42.700;23.304;2023-04-05T07:26:38;94818.06;;;4.04;100.00
5500;BME280;2772;42.700;23.304;2023-04-05T07:29:05;94810.97;;;4.00;100.00
5500;BME280;2772;42.700;23.304;2023-04-05T07:31:32;94810.69;;;4.01;100.00
5500;BME280;2772;42.700;23.304;2023-04-05T07:34:00;94816.50;;;3.98;100.00
5500;BME280;2772;42.700;23.304;2023-04-05T07:36:26;94821.03;;;3.93;100.00
5500;BME280;2772;42.700;23.304;2023-04-05T07:38:55;94811.28;;;3.93;100.00
5500;BME280;2772;42.700;23.304;2023-04-05T07:41:23;94815.47;;;3.99;100.00
5500;BME280;2772;42.700;23.304;2023-04-05T07:43:51;94810.91;;;4.10;100.00
5500;BME280;2772;42.700;23.304;2023-04-05T07:46:18;94829.34;;;4.15;100.00
5500;BME280;2772;42.700;23.304;2023-04-05T07:48:45;94830.38;;;4.14;100.00
5500;BME280;2772;42.700;23.304;2023-04-05T07:51:12;94821.91;;;4.22;100.00
5500;BME280;2772;42.700;23.304;2023-04-05T07:53:39;94839.91;;;4.10;100.00
5500;BME280;2772;42.700;23.304;2023-04-05T07:56:08;94836.59;;;4.28;100.00
5500;BME280;2772;42.700;23.304;2023-04-05T07:58:35;94839.94;;;4.43;100.00
5500;BME280;2772;42.700;23.304;2023-04-05T08:01:07;94842.94;;;4.32;100.00
5500;BME280;2772;42.700;23.304;2023-04-05T08:03:35;94843.25;;;4.20;100.00
5500;BME280;2772;42.700;23.304;2023-04-05T08:06:10;94843.25;;;4.20;100.00
5500;BME280;2772;42.700;23.304;2023-04-05T08:08:37;94845.13;;;4.15;100.00
5500;BME280;2772;42.700;23.304;2023-04-05T08:11:04;94845.72;;;4.07;100.00
5500;BME280;2772;42.700;23.304;2023-04-05T08:13:30;94853.91;;;4.00;100.00
5500;BME280;2772;42.700;23.304;2023-04-05T08:15:58;94842.84;;;3.98;100.00
5500;BME280;2772;42.700;23.304;2023-04-05T08:18:26;94852.22;;;4.19;100.00
5500;BME280;2772;42.700;23.304;2023-04-05T08:20:54;94849.09;;;4.12;100.00
5500;BME280;2772;42.700;23.304;2023-04-05T08:23:21;94857.59;;;4.04;100.00
5500;BME280;2772;42.700;23.304;2023-04-05T08:25:48;94852.13;;;3.86;100.00
5500;BME280;2772;42.700;23.304;2023-04-05T08:28:15;94864.16;;;4.02;100.00
5500;BME280;2772;42.700;23.304;2023-04-05T08:30:41;94866.97;;;4.15;100.00
5500;BME280;2772;42.700;23.304;2023-04-05T08:33:09;94857.25;;;4.16;100.00
5500;BME280;2772;42.700;23.304;2023-04-05T08:35:38;94861.78;;;4.10;100.00
5500;BME280;2772;42.700;23.304;2023-04-05T08:38:06;94855.69;;;4.10;100.00
5500;BME280;2772;42.700;23.304;2023-04-05T08:40:40;94858.03;;;4.16;100.00
5500;BME280;2772;42.700;23.304;2023-04-05T08:43:10;94866.75;;;4.17;100.00
5500;BME280;2772;42.700;23.304;2023-04-05T08:45:45;94861.63;;;4.35;100.00
5500;BME280;2772;42.700;23.304;2023-04-05T08:48:13;94869.44;;;4.50;100.00
5500;BME280;2772;42.700;23.304;2023-04-05T08:50:41;94873.63;;;4.51;100.00
5500;BME280;2772;42.700;23.304;2023-04-05T08:53:09;94872.38;;;4.39;100.00
5500;BME280;2772;42.700;23.304;2023-04-05T08:55:36;94870.56;;;4.39;100.00
5500;BME280;2772;42.700;23.304;2023-04-05T08:58:07;94877.72;;;4.29;100.00
5500;BME280;2772;42.700;23.304;2023-04-05T09:00:36;94873.22;;;4.29;100.00
5500;BME280;2772;42.700;23.304;2023-04-05T09:03:04;94870.56;;;4.39;100.00
5500;BME280;2772;42.700;23.304;2023-04-05T09:05:31;94872.59;;;4.47;100.00
5500;BME280;2772;42.700;23.304;2023-04-05T09:08:00;94878.00;;;4.66;100.00
5500;BME280;2772;42.700;23.304;2023-04-05T09:10:28;94880.13;;;4.64;100.00
5500;BME280;2772;42.700;23.304;2023-04-05T09:12:55;94891.75;;;4.63;100.00
5500;BME280;2772;42.700;23.304;2023-04-05T09:15:23;94890.53;;;4.84;100.00
5500;BME280;2772;42.700;23.304;2023-04-05T09:17:51;94889.78;;;4.78;100.00
5500;BME280;2772;42.700;23.304;2023-04-05T09:20:20;94894.56;;;4.71;100.00
5500;BME280;2772;42.700;23.304;2023-04-05T09:22:46;94897.75;;;4.68;100.00
5500;BME280;2772;42.700;23.304;2023-04-05T09:25:32;94890.16;;;5.01;100.00
5500;BME280;2772;42.700;23.304;2023-04-05T09:28:00;94886.53;;;5.20;100.00
5500;BME280;2772;42.700;23.304;2023-04-05T09:30:28;94895.72;;;5.28;100.00
5500;BME280;2772;42.700;23.304;2023-04-05T09:32:55;94897.47;;;5.09;100.00
5500;BME280;2772;42.700;23.304;2023-04-05T09:35:23;94884.69;;;5.21;100.00
5500;BME280;2772;42.700;23.304;2023-04-05T09:37:53;94890.66;;;5.31;100.00
5500;BME280;2772;42.700;23.304;2023-04-05T09:40:22;94891.19;;;5.33;100.00
5500;BME280;2772;42.700;23.304;2023-04-05T09:42:49;94894.47;;;5.20;100.00
5500;BME280;2772;42.700;23.304;2023-04-05T09:45:17;94890.50;;;5.23;100.00
5500;BME280;2772;42.700;23.304;2023-04-05T09:47:53;94892.66;;;5.16;100.00
5500;BME280;2772;42.700;23.304;2023-04-05T09:50:21;94888.91;;;5.22;100.00
5500;BME280;2772;42.700;23.304;2023-04-05T09:52:47;94887.53;;;5.29;100.00
5500;BME280;2772;42.700;23.304;2023-04-05T09:55:26;94891.81;;;5.20;100.00
5500;BME280;2772;42.700;23.304;2023-04-05T09:57:53;94893.31;;;5.03;100.00
5500;BME280;2772;42.700;23.304;2023-04-05T10:00:21;94897.09;;;4.92;100.00
5500;BME280;2772;42.700;23.304;2023-04-05T10:02:52;94894.72;;;4.90;100.00
5500;BME280;2772;42.700;23.304;2023-04-05T10:05:22;94895.81;;;4.84;100.00
5500;BME280;2772;42.700;23.304;2023-04-05T10:07:49;94897.59;;;4.93;100.00
5500;BME280;2772;42.700;23.304;2023-04-05T10:10:17;94902.50;;;5.05;100.00
5500;BME280;2772;42.700;23.304;2023-04-05T10:12:45;94902.75;;;5.09;100.00
5500;BME280;2772;42.700;23.304;2023-04-05T10:15:14;94894.00;;;5.13;100.00
5500;BME280;2772;42.700;23.304;2023-04-05T10:17:46;94924.72;;;4.99;100.00
5500;BME280;2772;42.700;23.304;2023-04-05T10:20:17;94912.38;;;4.95;100.00
5500;BME280;2772;42.700;23.304;2023-04-05T10:22:58;94899.03;;;5.10;100.00
5500;BME280;2772;42.700;23.304;2023-04-05T10:25:41;94902.34;;;5.25;100.00
5500;BME280;2772;42.700;23.304;2023-04-05T10:28:18;94890.69;;;5.55;100.00
5500;BME280;2772;42.700;23.304;2023-04-05T10:30:50;94908.38;;;5.54;100.00
5500;BME280;2772;42.700;23.304;2023-04-05T10:33:19;94896.38;;;5.43;100.00
5500;BME280;2772;42.700;23.304;2023-04-05T10:35:59;94895.75;;;5.51;100.00
5500;BME280;2772;42.700;23.304;2023-04-05T10:38:35;94904.63;;;5.37;100.00
5500;BME280;2772;42.700;23.304;2023-04-05T10:41:09;94900.09;;;5.37;100.00
5500;BME280;2772;42.700;23.304;2023-04-05T10:43:40;94893.50;;;5.40;100.00
5500;BME280;2772;42.700;23.304;2023-04-05T10:46:09;94895.06;;;5.41;100.00
5500;BME280;2772;42.700;23.304;2023-04-05T10:48:41;94893.59;;;5.30;100.00
5500;BME280;2772;42.700;23.304;2023-04-05T10:51:10;94907.75;;;5.39;100.00
5500;BME280;2772;42.700;23.304;2023-04-05T10:53:38;94903.50;;;5.43;100.00
5500;BME280;2772;42.700;23.304;2023-04-05T10:56:07;94903.50;;;5.43;100.00
5500;BME280;2772;42.700;23.304;2023-04-05T10:58:34;94904.19;;;5.53;100.00
5500;BME280;2772;42.700;23.304;2023-04-05T11:01:06;94907.66;;;5.49;100.00
5500;BME280;2772;42.700;23.304;2023-04-05T11:03:47;94910.78;;;5.56;100.00
5500;BME280;2772;42.700;23.304;2023-04-05T11:06:22;94906.22;;;5.61;100.00
5500;BME280;2772;42.700;23.304;2023-04-05T11:08:52;94915.66;;;5.67;100.00
5500;BME280;2772;42.700;23.304;2023-04-05T11:11:21;94910.44;;;5.62;100.00
5500;BME280;2772;42.700;23.304;2023-04-05T11:13:49;94911.78;;;5.60;100.00
5500;BME280;2772;42.700;23.304;2023-04-05T11:16:18;94920.66;;;5.40;100.00
5500;BME280;2772;42.700;23.304;2023-04-05T11:18:45;94908.97;;;5.23;100.00
5500;BME280;2772;42.700;23.304;2023-04-05T11:21:20;94911.88;;;5.21;100.00
5500;BME280;2772;42.700;23.304;2023-04-05T11:24:02;94894.09;;;5.32;100.00
5500;BME280;2772;42.700;23.304;2023-04-05T11:26:31;94913.59;;;5.36;100.00
5500;BME280;2772;42.700;23.304;2023-04-05T11:28:58;94917.72;;;5.47;100.00
5500;BME280;2772;42.700;23.304;2023-04-05T11:31:26;94907.44;;;5.45;100.00
5500;BME280;2772;42.700;23.304;2023-04-05T11:33:57;94906.72;;;5.63;100.00
5500;BME280;2772;42.700;23.304;2023-04-05T11:36:29;94901.09;;;5.46;100.00
5500;BME280;2772;42.700;23.304;2023-04-05T11:39:23;94903.06;;;5.59;100.00
5500;BME280;2772;42.700;23.304;2023-04-05T11:42:01;94899.47;;;5.74;100.00
5500;BME280;2772;42.700;23.304;2023-04-05T11:44:29;94895.38;;;5.63;100.00
5500;BME280;2772;42.700;23.304;2023-04-05T11:47:03;94899.75;;;5.72;100.00
5500;BME280;2772;42.700;23.304;2023-04-05T11:49:29;94905.06;;;5.44;100.00
5500;BME280;2772;42.700;23.304;2023-04-05T11:51:56;94909.69;;;5.57;100.00
5500;BME280;2772;42.700;23.304;2023-04-05T11:54:30;94901.88;;;5.47;100.00
5500;BME280;2772;42.700;23.304;2023-04-05T11:56:57;94904.19;;;5.53;100.00
5500;BME280;2772;42.700;23.304;2023-04-05T11:59:28;94903.69;;;5.75;100.00
5500;BME280;2772;42.700;23.304;2023-04-05T12:02:01;94896.34;;;5.95;100.00
5500;BME280;2772;42.700;23.304;2023-04-05T12:04:30;94888.25;;;6.10;100.00
5500;BME280;2772;42.700;23.304;2023-04-05T12:07:11;94895.66;;;6.32;100.00
5500;BME280;2772;42.700;23.304;2023-04-05T12:09:58;94886.41;;;6.48;100.00
5500;BME280;2772;42.700;23.304;2023-04-05T12:12:25;94894.72;;;6.41;100.00
5500;BME280;2772;42.700;23.304;2023-04-05T12:14:57;94898.88;;;6.29;100.00
5500;BME280;2772;42.700;23.304;2023-04-05T12:17:38;94906.00;;;6.28;100.00
5500;BME280;2772;42.700;23.304;2023-04-05T12:20:06;94904.16;;;6.29;100.00
5500;BME280;2772;42.700;23.304;2023-04-05T12:22:33;94907.38;;;6.26;100.00
5500;BME280;2772;42.700;23.304;2023-04-05T12:25:00;94903.06;;;6.30;100.00
5500;BME280;2772;42.700;23.304;2023-04-05T12:27:27;94911.06;;;6.25;100.00
5500;BME280;2772;42.700;23.304;2023-04-05T12:30:08;94914.03;;;6.18;100.00
5500;BME280;2772;42.700;23.304;2023-04-05T12:32:39;94897.50;;;5.89;100.00
5500;BME280;2772;42.700;23.304;2023-04-05T12:35:09;94892.28;;;5.79;100.00
5500;BME280;2772;42.700;23.304;2023-04-05T12:37:37;94898.47;;;5.93;100.00
5500;BME280;2772;42.700;23.304;2023-04-05T12:40:05;94894.78;;;5.94;100.00
5500;BME280;2772;42.700;23.304;2023-04-05T12:42:32;94892.59;;;6.01;100.00
5500;BME280;2772;42.700;23.304;2023-04-05T12:45:02;94898.28;;;5.90;100.00
5500;BME280;2772;42.700;23.304;2023-04-05T12:47:29;94913.41;;;5.84;100.00
5500;BME280;2772;42.700;23.304;2023-04-05T12:49:57;94900.84;;;5.95;100.00
5500;BME280;2772;42.700;23.304;2023-04-05T12:52:26;94899.75;;;6.01;100.00
5500;BME280;2772;42.700;23.304;2023-04-05T12:54:53;94896.22;;;5.58;100.00
5500;BME280;2772;42.700;23.304;2023-04-05T12:57:28;94881.78;;;5.74;100.00
5500;BME280;2772;42.700;23.304;2023-04-05T12:59:55;94905.06;;;5.72;100.00
5500;BME280;2772;42.700;23.304;2023-04-05T13:02:21;94899.28;;;5.42;100.00
5500;BME280;2772;42.700;23.304;2023-04-05T13:04:48;94910.38;;;5.39;100.00
5500;BME280;2772;42.700;23.304;2023-04-05T13:07:16;94913.00;;;5.44;100.00
5500;BME280;2772;42.700;23.304;2023-04-05T13:09:43;94914.09;;;5.38;100.00
5500;BME280;2772;42.700;23.304;2023-04-05T13:12:10;94907.38;;;5.22;100.00
5500;BME280;2772;42.700;23.304;2023-04-05T13:14:37;94914.56;;;5.16;100.00
5500;BME280;2772;42.700;23.304;2023-04-05T13:17:03;94914.53;;;5.21;100.00
5500;BME280;2772;42.700;23.304;2023-04-05T13:19:30;94921.09;;;5.24;100.00